Hlavní strana
METAR-TAF:

METAR-TAF

Letiště :

Trondheim, Norsko

zeměpisná šířka: 63-28N, zeměpisná délka: 010-56E, výška: 1 m

Aktuální stav počasí

Zpráva byla vytvořena před 20 minutami, v 18:20 UTC
Východní vítr 11 kt
Teplota 4°C
Vlhkost vzduchu 65%
Tlak 972 hPa
Viditelnost 10 km a více
Žádná oblačnost pod 1500 m, nevyskytují se cumulonimby.

METAR: ENVA 221820Z 09011KT CAVOK 04/M02 Q0972 NOSIG RMK WIND 670FT 13016KT

Čas: 19:40 (18:40 UTC)

Předpověď počasí

Předpověď platná od 22 v 18 UTC do 23 v 18 UTC
Východní vítr 10 kt
Viditelnost 10 km a více
Skoro jasno ve výšce 4000 ft
Polojasno ve výšce 8000 ft
Pravděpodobnost 40% :
Dočasný
od 23 v 10 UTC do 23 v 18 UTC
Jihojihozápadní vítr 10 kt
Viditelnost: 2000 m
ve výšce 1000 ft
sněhové přeháňky

TAF: ENVA 2218/2318 08010KT 9999 FEW040 SCT080 PROB40 TEMPO 2310/2318 21010KT 2000 SHSN VV010

Stav a předpovědi počasí z více než 4 000 letišť (zprávy METAR a TAF).

Červené a žluté tečky na mapě představují dostupné meteorologické stanice.

Když kurzor umístíte na tečku, zobrazí se název stanice.

Pak kliknutím zobrazíte stav a předpověď počasí.

Chcete-li změnit mapu, kliknutím na zelené tlačítko se znaménkem +mapu přiblížíte, kliknutím na zelené tlačítko se znaménkem – mapu oddálíte a kliknutím na zelené šipky přejdete na sousední mapy.


METAR-TAF: